RYR7AS LIBC-LIME
Flight info
| Callsign | RYR7AS |
|---|---|
| Flight time | 1h 30m |
| Altitude | 34000 |
| Route | CDC1L CDC DCT TEA DCT ALAXI DCT KUGIX DCT LOMED DCT IPLUB DCT OSBUL OSBUL4E |
| Aircraft | B738/M-SDE2E3FGHIRWXY/LB1 |
Departure
| Time | 2026-05-06 19:54 |
|---|---|
| Airport | Crotone Sant'Anna Pythagoras Airport (LIBC) |
Arrival
| Time | 2026-05-06 21:25 |
|---|---|
| Airport | Il Caravaggio International Airport (LIME) |
| Time | Latitude | Longitude | Altitude | Speed | Heading |
|---|---|---|---|---|---|
| 2026-05-06 19:29 | 38.99511 | 17.07800 | 530 ft | 0 kts | 258° |
| 2026-05-06 19:49 | 38.99516 | 17.07793 | 530 ft | 1 kts | 319° |
| 2026-05-06 19:49 | 38.99527 | 17.07803 | 530 ft | 4 kts | 40° |
| 2026-05-06 19:50 | 38.99560 | 17.07825 | 530 ft | 7 kts | 8° |
| 2026-05-06 19:50 | 38.99615 | 17.07844 | 531 ft | 10 kts | 40° |
| 2026-05-06 19:50 | 38.99652 | 17.07942 | 530 ft | 15 kts | 70° |
| 2026-05-06 19:50 | 38.99739 | 17.08009 | 529 ft | 18 kts | 352° |
| 2026-05-06 19:51 | 38.99879 | 17.07974 | 530 ft | 23 kts | 349° |
| 2026-05-06 19:51 | 39.00049 | 17.07932 | 531 ft | 27 kts | 349° |
| 2026-05-06 19:51 | 39.00248 | 17.07881 | 532 ft | 31 kts | 348° |
| 2026-05-06 19:51 | 39.00420 | 17.07829 | 532 ft | 26 kts | 344° |
| 2026-05-06 19:52 | 39.00564 | 17.07763 | 533 ft | 12 kts | 2° |
| 2026-05-06 19:52 | 39.00583 | 17.07800 | 533 ft | 3 kts | 126° |
| 2026-05-06 19:52 | 39.00562 | 17.07809 | 534 ft | 4 kts | 169° |
| 2026-05-06 19:52 | 39.00538 | 17.07815 | 534 ft | 3 kts | 169° |
| 2026-05-06 19:53 | 39.00515 | 17.07821 | 534 ft | 3 kts | 169° |
| 2026-05-06 19:53 | 39.00492 | 17.07827 | 533 ft | 2 kts | 168° |
| 2026-05-06 19:53 | 39.00252 | 17.07887 | 533 ft | 78 kts | 168° |
| 2026-05-06 19:53 | 38.99451 | 17.08085 | 531 ft | 154 kts | 168° |
| 2026-05-06 19:54 | 38.98237 | 17.08373 | 903 ft | 190 kts | 174° |
| 2026-05-06 19:54 | 38.96922 | 17.08631 | 1935 ft | 191 kts | 179° |
| 2026-05-06 19:54 | 38.95616 | 17.08691 | 2954 ft | 188 kts | 181° |
| 2026-05-06 19:54 | 38.94282 | 17.08699 | 3530 ft | 196 kts | 181° |
| 2026-05-06 19:55 | 38.92893 | 17.08700 | 4064 ft | 201 kts | 180° |
| 2026-05-06 19:55 | 38.91479 | 17.08752 | 4614 ft | 207 kts | 179° |
| 2026-05-06 19:55 | 38.90007 | 17.08816 | 5072 ft | 216 kts | 179° |
| 2026-05-06 19:55 | 38.88459 | 17.08899 | 5454 ft | 229 kts | 178° |
| 2026-05-06 19:56 | 38.87395 | 17.08968 | 5737 ft | 234 kts | 178° |
| 2026-05-06 19:56 | 38.85749 | 17.09050 | 6239 ft | 240 kts | 183° |
| 2026-05-06 19:56 | 38.84111 | 17.08588 | 6771 ft | 243 kts | 203° |
| 2026-05-06 19:56 | 38.82671 | 17.07446 | 7383 ft | 246 kts | 220° |
| 2026-05-06 19:57 | 38.81277 | 17.05074 | 8008 ft | 266 kts | 245° |
| 2026-05-06 19:57 | 38.80751 | 17.02748 | 8625 ft | 277 kts | 259° |
| 2026-05-06 19:57 | 38.80598 | 17.01079 | 9155 ft | 280 kts | 262° |
| 2026-05-06 19:57 | 38.80434 | 16.98586 | 9972 ft | 282 kts | 262° |
| 2026-05-06 19:58 | 38.80267 | 16.96054 | 10510 ft | 293 kts | 262° |
| 2026-05-06 19:58 | 38.80077 | 16.93340 | 10673 ft | 317 kts | 262° |
| 2026-05-06 19:58 | 38.79860 | 16.90433 | 10953 ft | 335 kts | 262° |
| 2026-05-06 19:58 | 38.79630 | 16.87432 | 11552 ft | 340 kts | 262° |
| 2026-05-06 19:59 | 38.79396 | 16.84415 | 12331 ft | 340 kts | 262° |
| 2026-05-06 19:59 | 38.79160 | 16.81397 | 13123 ft | 341 kts | 262° |
| 2026-05-06 19:59 | 38.78926 | 16.78409 | 13864 ft | 342 kts | 262° |
| 2026-05-06 19:59 | 38.78685 | 16.75362 | 14502 ft | 345 kts | 262° |
| 2026-05-06 20:00 | 38.78442 | 16.72299 | 15141 ft | 347 kts | 262° |
| 2026-05-06 20:00 | 38.78195 | 16.69204 | 15766 ft | 350 kts | 262° |
| 2026-05-06 20:00 | 38.77951 | 16.66129 | 16632 ft | 345 kts | 262° |
| 2026-05-06 20:00 | 38.77706 | 16.63061 | 17296 ft | 347 kts | 262° |
| 2026-05-06 20:01 | 38.77458 | 16.59963 | 17862 ft | 351 kts | 262° |
| 2026-05-06 20:01 | 38.77206 | 16.56834 | 18439 ft | 354 kts | 262° |
| 2026-05-06 20:01 | 38.76952 | 16.53683 | 18937 ft | 357 kts | 263° |
| 2026-05-06 20:01 | 38.76695 | 16.50496 | 19423 ft | 361 kts | 263° |
| 2026-05-06 20:02 | 38.76434 | 16.47280 | 19906 ft | 365 kts | 263° |
| 2026-05-06 20:02 | 38.76169 | 16.44035 | 20398 ft | 368 kts | 263° |
| 2026-05-06 20:02 | 38.76117 | 16.40745 | 20836 ft | 374 kts | 277° |
| 2026-05-06 20:02 | 38.76907 | 16.37544 | 21327 ft | 381 kts | 294° |
| 2026-05-06 20:03 | 38.78357 | 16.34666 | 21819 ft | 390 kts | 307° |
| 2026-05-06 20:03 | 38.80424 | 16.32349 | 22294 ft | 399 kts | 319° |
| 2026-05-06 20:03 | 38.82691 | 16.30266 | 22761 ft | 403 kts | 321° |
| 2026-05-06 20:03 | 38.85008 | 16.28211 | 23189 ft | 407 kts | 321° |
| 2026-05-06 20:04 | 38.87357 | 16.26146 | 23618 ft | 410 kts | 321° |
| 2026-05-06 20:04 | 38.89709 | 16.24071 | 24074 ft | 410 kts | 321° |
| 2026-05-06 20:04 | 38.92057 | 16.21983 | 24533 ft | 410 kts | 321° |
| 2026-05-06 20:04 | 38.94392 | 16.19891 | 24996 ft | 409 kts | 321° |
| 2026-05-06 20:05 | 38.96719 | 16.17794 | 25469 ft | 408 kts | 321° |
| 2026-05-06 20:05 | 38.99041 | 16.15692 | 25947 ft | 408 kts | 321° |
| 2026-05-06 20:05 | 39.01357 | 16.13590 | 26434 ft | 407 kts | 321° |
| 2026-05-06 20:05 | 39.03667 | 16.11489 | 26924 ft | 406 kts | 321° |
| 2026-05-06 20:06 | 39.05967 | 16.09395 | 27419 ft | 404 kts | 321° |
| 2026-05-06 20:06 | 39.08258 | 16.07308 | 27927 ft | 403 kts | 321° |
| 2026-05-06 20:06 | 39.10537 | 16.05230 | 28443 ft | 400 kts | 321° |
| 2026-05-06 20:06 | 39.12804 | 16.03161 | 28966 ft | 398 kts | 321° |
| 2026-05-06 20:07 | 39.15052 | 16.01109 | 29507 ft | 395 kts | 321° |
| 2026-05-06 20:07 | 39.17284 | 15.99069 | 30066 ft | 392 kts | 321° |
| 2026-05-06 20:07 | 39.19498 | 15.97044 | 30530 ft | 388 kts | 321° |
| 2026-05-06 20:07 | 39.21689 | 15.95039 | 31007 ft | 384 kts | 320° |
| 2026-05-06 20:08 | 39.23858 | 15.93053 | 31486 ft | 380 kts | 320° |
| 2026-05-06 20:08 | 39.26013 | 15.91076 | 31750 ft | 383 kts | 320° |
| 2026-05-06 20:08 | 39.30440 | 15.87003 | 31873 ft | 398 kts | 320° |
| 2026-05-06 20:09 | 39.35028 | 15.82778 | 32009 ft | 412 kts | 321° |
| 2026-05-06 20:09 | 39.39771 | 15.78407 | 32155 ft | 425 kts | 321° |
| 2026-05-06 20:10 | 39.44655 | 15.73902 | 32264 ft | 437 kts | 321° |
| 2026-05-06 20:10 | 39.47144 | 15.71604 | 32374 ft | 442 kts | 321° |
| 2026-05-06 20:10 | 39.49654 | 15.69285 | 32580 ft | 443 kts | 321° |
| 2026-05-06 20:11 | 39.52158 | 15.66971 | 32949 ft | 441 kts | 321° |
| 2026-05-06 20:11 | 39.54649 | 15.64667 | 33324 ft | 439 kts | 321° |
| 2026-05-06 20:11 | 39.57133 | 15.62366 | 33554 ft | 441 kts | 320° |
| 2026-05-06 20:11 | 39.59641 | 15.60037 | 33658 ft | 445 kts | 320° |
| 2026-05-06 20:12 | 39.62154 | 15.57703 | 33941 ft | 444 kts | 320° |
| 2026-05-06 20:12 | 39.64671 | 15.55362 | 33996 ft | 447 kts | 320° |
| 2026-05-06 20:12 | 39.69713 | 15.50637 | 34007 ft | 446 kts | 320° |
| 2026-05-06 20:13 | 39.74692 | 15.45939 | 34010 ft | 440 kts | 320° |
| 2026-05-06 20:13 | 39.79635 | 15.41260 | 34023 ft | 439 kts | 320° |
| 2026-05-06 20:14 | 39.84575 | 15.36579 | 34017 ft | 439 kts | 320° |
| 2026-05-06 20:14 | 39.89518 | 15.31888 | 34029 ft | 440 kts | 320° |
| 2026-05-06 20:15 | 39.94464 | 15.27188 | 34034 ft | 441 kts | 319° |
| 2026-05-06 20:15 | 39.99428 | 15.22461 | 34027 ft | 442 kts | 319° |
| 2026-05-06 20:16 | 40.04396 | 15.17723 | 34022 ft | 443 kts | 319° |
| 2026-05-06 20:16 | 40.09375 | 15.12966 | 34028 ft | 444 kts | 319° |
| 2026-05-06 20:17 | 40.14329 | 15.08224 | 34038 ft | 445 kts | 319° |
| 2026-05-06 20:17 | 40.19327 | 15.03430 | 34031 ft | 446 kts | 319° |
| 2026-05-06 20:18 | 40.24331 | 14.98622 | 34025 ft | 447 kts | 319° |
| 2026-05-06 20:18 | 40.29340 | 14.93800 | 34039 ft | 447 kts | 319° |
| 2026-05-06 20:19 | 40.34347 | 14.88970 | 34052 ft | 447 kts | 319° |
| 2026-05-06 20:19 | 40.39356 | 14.84131 | 34067 ft | 447 kts | 319° |
| 2026-05-06 20:20 | 40.44362 | 14.79283 | 34056 ft | 447 kts | 319° |
| 2026-05-06 20:20 | 40.49364 | 14.74432 | 34062 ft | 447 kts | 319° |
| 2026-05-06 20:21 | 40.54362 | 14.69575 | 34060 ft | 446 kts | 319° |
| 2026-05-06 20:21 | 40.59356 | 14.64713 | 34055 ft | 446 kts | 319° |
| 2026-05-06 20:22 | 40.64340 | 14.59850 | 34071 ft | 446 kts | 318° |
| 2026-05-06 20:22 | 40.69331 | 14.54971 | 34045 ft | 447 kts | 318° |
| 2026-05-06 20:23 | 40.74331 | 14.50075 | 34044 ft | 449 kts | 318° |
| 2026-05-06 20:23 | 40.79386 | 14.45110 | 34055 ft | 456 kts | 318° |
| 2026-05-06 20:24 | 40.84483 | 14.40100 | 34045 ft | 457 kts | 318° |
| 2026-05-06 20:24 | 40.89563 | 14.35102 | 34054 ft | 451 kts | 317° |
| 2026-05-06 20:25 | 40.94612 | 14.30120 | 34295 ft | 454 kts | 317° |
| 2026-05-06 20:25 | 40.97136 | 14.27625 | 34596 ft | 452 kts | 317° |
| 2026-05-06 20:25 | 40.99647 | 14.25142 | 34938 ft | 448 kts | 317° |
| 2026-05-06 20:26 | 41.02100 | 14.22714 | 35267 ft | 445 kts | 317° |
| 2026-05-06 20:26 | 41.04576 | 14.20261 | 35538 ft | 444 kts | 318° |
| 2026-05-06 20:26 | 41.07049 | 14.17806 | 35707 ft | 445 kts | 318° |
| 2026-05-06 20:26 | 41.09526 | 14.15345 | 35917 ft | 444 kts | 318° |
| 2026-05-06 20:27 | 41.11996 | 14.12888 | 36081 ft | 445 kts | 317° |
| 2026-05-06 20:27 | 41.14474 | 14.10420 | 36048 ft | 446 kts | 317° |
| 2026-05-06 20:27 | 41.19429 | 14.05483 | 36027 ft | 443 kts | 317° |
| 2026-05-06 20:28 | 41.24330 | 14.00593 | 36036 ft | 439 kts | 317° |
| 2026-05-06 20:28 | 41.29200 | 13.95720 | 36041 ft | 438 kts | 317° |
| 2026-05-06 20:29 | 41.34059 | 13.90849 | 36043 ft | 437 kts | 317° |
| 2026-05-06 20:29 | 41.38916 | 13.85970 | 36042 ft | 437 kts | 317° |
| 2026-05-06 20:30 | 41.46207 | 13.78629 | 36045 ft | 439 kts | 316° |
| 2026-05-06 20:31 | 41.51079 | 13.73713 | 36047 ft | 439 kts | 316° |
| 2026-05-06 20:31 | 41.55962 | 13.68776 | 36043 ft | 441 kts | 316° |
| 2026-05-06 20:32 | 41.60866 | 13.63808 | 36041 ft | 443 kts | 316° |
| 2026-05-06 20:32 | 41.65772 | 13.58829 | 36033 ft | 443 kts | 316° |
| 2026-05-06 20:33 | 41.70681 | 13.53838 | 36031 ft | 443 kts | 316° |
| 2026-05-06 20:33 | 41.75588 | 13.48838 | 36059 ft | 443 kts | 316° |
| 2026-05-06 20:34 | 41.80503 | 13.43819 | 36046 ft | 444 kts | 316° |
| 2026-05-06 20:34 | 41.85415 | 13.38794 | 36033 ft | 444 kts | 316° |
| 2026-05-06 20:35 | 41.90315 | 13.33773 | 36031 ft | 443 kts | 316° |
| 2026-05-06 20:35 | 41.95215 | 13.28740 | 36020 ft | 443 kts | 316° |
| 2026-05-06 20:36 | 42.00106 | 13.23707 | 36018 ft | 443 kts | 316° |
| 2026-05-06 20:36 | 42.04984 | 13.18677 | 36030 ft | 441 kts | 316° |
| 2026-05-06 20:37 | 42.09856 | 13.13645 | 36023 ft | 440 kts | 316° |
| 2026-05-06 20:37 | 42.14713 | 13.08615 | 36026 ft | 440 kts | 315° |
| 2026-05-06 20:38 | 42.19564 | 13.03582 | 36016 ft | 440 kts | 315° |
| 2026-05-06 20:38 | 42.24414 | 12.98542 | 36022 ft | 440 kts | 315° |
| 2026-05-06 20:39 | 42.29265 | 12.93489 | 36043 ft | 441 kts | 315° |
| 2026-05-06 20:39 | 42.34123 | 12.88419 | 36019 ft | 442 kts | 315° |
| 2026-05-06 20:40 | 42.38953 | 12.83369 | 36008 ft | 441 kts | 315° |
| 2026-05-06 20:40 | 42.43016 | 12.79113 | 36010 ft | 441 kts | 315° |
| 2026-05-06 20:41 | 42.47866 | 12.74024 | 35998 ft | 441 kts | 315° |
| 2026-05-06 20:41 | 42.52697 | 12.68945 | 36010 ft | 439 kts | 315° |
| 2026-05-06 20:42 | 42.57522 | 12.63859 | 36009 ft | 439 kts | 315° |
| 2026-05-06 20:42 | 42.62347 | 12.58763 | 36009 ft | 440 kts | 315° |
| 2026-05-06 20:43 | 42.67187 | 12.53641 | 35987 ft | 442 kts | 315° |
| 2026-05-06 20:43 | 42.72028 | 12.48511 | 35994 ft | 441 kts | 315° |
| 2026-05-06 20:44 | 42.76829 | 12.43412 | 36010 ft | 441 kts | 315° |
| 2026-05-06 20:44 | 42.81658 | 12.38271 | 36007 ft | 441 kts | 314° |
| 2026-05-06 20:45 | 42.86488 | 12.33120 | 35992 ft | 441 kts | 314° |
| 2026-05-06 20:45 | 42.91310 | 12.27966 | 35997 ft | 440 kts | 314° |
| 2026-05-06 20:46 | 42.96127 | 12.22807 | 35995 ft | 440 kts | 314° |
| 2026-05-06 20:46 | 43.00942 | 12.17640 | 35991 ft | 440 kts | 315° |
| 2026-05-06 20:47 | 43.05756 | 12.12462 | 35989 ft | 441 kts | 314° |
| 2026-05-06 20:47 | 43.10579 | 12.07264 | 35982 ft | 441 kts | 314° |
| 2026-05-06 20:48 | 43.15395 | 12.02064 | 35997 ft | 441 kts | 314° |
| 2026-05-06 20:48 | 43.20214 | 11.96849 | 36000 ft | 441 kts | 314° |
| 2026-05-06 20:49 | 43.25030 | 11.91627 | 35990 ft | 441 kts | 314° |
| 2026-05-06 20:49 | 43.29840 | 11.86403 | 35684 ft | 439 kts | 314° |
| 2026-05-06 20:49 | 43.32221 | 11.83815 | 35431 ft | 434 kts | 314° |
| 2026-05-06 20:50 | 43.34576 | 11.81254 | 35172 ft | 429 kts | 314° |
| 2026-05-06 20:50 | 43.36905 | 11.78718 | 34935 ft | 426 kts | 314° |
| 2026-05-06 20:50 | 43.39189 | 11.76225 | 34694 ft | 424 kts | 314° |
| 2026-05-06 20:50 | 43.41492 | 11.73706 | 34458 ft | 422 kts | 314° |
| 2026-05-06 20:51 | 43.43787 | 11.71194 | 34229 ft | 421 kts | 314° |
| 2026-05-06 20:51 | 43.46075 | 11.68687 | 34042 ft | 421 kts | 314° |
| 2026-05-06 20:51 | 43.48366 | 11.66173 | 34044 ft | 422 kts | 314° |
| 2026-05-06 20:52 | 43.52951 | 11.61139 | 33987 ft | 419 kts | 314° |
| 2026-05-06 20:52 | 43.57502 | 11.56135 | 33980 ft | 419 kts | 314° |
| 2026-05-06 20:53 | 43.62062 | 11.51107 | 33982 ft | 420 kts | 314° |
| 2026-05-06 20:53 | 43.66635 | 11.46057 | 33996 ft | 422 kts | 313° |
| 2026-05-06 20:54 | 43.71236 | 11.40963 | 33994 ft | 427 kts | 314° |
| 2026-05-06 20:54 | 43.75861 | 11.35837 | 33612 ft | 423 kts | 314° |
| 2026-05-06 20:54 | 43.78137 | 11.33319 | 33276 ft | 416 kts | 313° |
| 2026-05-06 20:55 | 43.80387 | 11.30824 | 32928 ft | 412 kts | 313° |
| 2026-05-06 20:55 | 43.82609 | 11.28354 | 32525 ft | 409 kts | 313° |
| 2026-05-06 20:55 | 43.84817 | 11.25895 | 32146 ft | 406 kts | 313° |
| 2026-05-06 20:55 | 43.87006 | 11.23454 | 31812 ft | 403 kts | 313° |
| 2026-05-06 20:56 | 43.89181 | 11.21025 | 31431 ft | 400 kts | 313° |
| 2026-05-06 20:56 | 43.91341 | 11.18611 | 31052 ft | 398 kts | 313° |
| 2026-05-06 20:56 | 43.93489 | 11.16210 | 30665 ft | 395 kts | 313° |
| 2026-05-06 20:56 | 43.95623 | 11.13821 | 30321 ft | 392 kts | 312° |
| 2026-05-06 20:57 | 43.97741 | 11.11448 | 29929 ft | 390 kts | 312° |
| 2026-05-06 20:57 | 43.99846 | 11.09088 | 29518 ft | 387 kts | 313° |
| 2026-05-06 20:57 | 44.01933 | 11.06747 | 29114 ft | 384 kts | 313° |
| 2026-05-06 20:57 | 44.03966 | 11.04464 | 28807 ft | 378 kts | 313° |
| 2026-05-06 20:58 | 44.06035 | 11.02138 | 28380 ft | 376 kts | 313° |
| 2026-05-06 20:58 | 44.08028 | 10.99895 | 28061 ft | 372 kts | 313° |
| 2026-05-06 20:58 | 44.10029 | 10.97642 | 27726 ft | 370 kts | 311° |
| 2026-05-06 20:58 | 44.12021 | 10.95394 | 27341 ft | 367 kts | 311° |
| 2026-05-06 20:59 | 44.13997 | 10.93162 | 26959 ft | 364 kts | 312° |
| 2026-05-06 20:59 | 44.15956 | 10.90948 | 26630 ft | 360 kts | 312° |
| 2026-05-06 20:59 | 44.17894 | 10.88756 | 26269 ft | 358 kts | 312° |
| 2026-05-06 20:59 | 44.19822 | 10.86574 | 25941 ft | 356 kts | 312° |
| 2026-05-06 21:00 | 44.21742 | 10.84399 | 25582 ft | 354 kts | 312° |
| 2026-05-06 21:00 | 44.23649 | 10.82240 | 25253 ft | 352 kts | 313° |
| 2026-05-06 21:00 | 44.25664 | 10.80266 | 24900 ft | 359 kts | 323° |
| 2026-05-06 21:00 | 44.27905 | 10.78699 | 24579 ft | 360 kts | 327° |
| 2026-05-06 21:01 | 44.30171 | 10.77220 | 24238 ft | 359 kts | 327° |
| 2026-05-06 21:01 | 44.32436 | 10.75762 | 23902 ft | 358 kts | 328° |
| 2026-05-06 21:01 | 44.34697 | 10.74303 | 23539 ft | 357 kts | 328° |
| 2026-05-06 21:01 | 44.36945 | 10.72843 | 23143 ft | 355 kts | 328° |
| 2026-05-06 21:02 | 44.39177 | 10.71382 | 22779 ft | 353 kts | 328° |
| 2026-05-06 21:02 | 44.41390 | 10.69926 | 22441 ft | 350 kts | 328° |
| 2026-05-06 21:02 | 44.43587 | 10.68474 | 22101 ft | 348 kts | 328° |
| 2026-05-06 21:02 | 44.45770 | 10.67026 | 21773 ft | 346 kts | 328° |
| 2026-05-06 21:03 | 44.47940 | 10.65584 | 21439 ft | 344 kts | 328° |
| 2026-05-06 21:03 | 44.50092 | 10.64153 | 21140 ft | 342 kts | 328° |
| 2026-05-06 21:03 | 44.52230 | 10.62729 | 20799 ft | 340 kts | 328° |
| 2026-05-06 21:03 | 44.54362 | 10.61306 | 20459 ft | 339 kts | 328° |
| 2026-05-06 21:04 | 44.56482 | 10.59890 | 20137 ft | 337 kts | 328° |
| 2026-05-06 21:04 | 44.58593 | 10.58479 | 19804 ft | 335 kts | 328° |
| 2026-05-06 21:04 | 44.60693 | 10.57075 | 19487 ft | 334 kts | 328° |
| 2026-05-06 21:04 | 44.62788 | 10.55672 | 19159 ft | 333 kts | 329° |
| 2026-05-06 21:05 | 44.64874 | 10.54275 | 18841 ft | 331 kts | 329° |
| 2026-05-06 21:05 | 44.66952 | 10.52882 | 18510 ft | 330 kts | 329° |
| 2026-05-06 21:05 | 44.69017 | 10.51496 | 18187 ft | 329 kts | 329° |
| 2026-05-06 21:05 | 44.71077 | 10.50113 | 17833 ft | 329 kts | 329° |
| 2026-05-06 21:06 | 44.73164 | 10.48708 | 17370 ft | 335 kts | 329° |
| 2026-05-06 21:06 | 44.75267 | 10.47292 | 17072 ft | 333 kts | 329° |
| 2026-05-06 21:06 | 44.77346 | 10.45895 | 16786 ft | 330 kts | 329° |
| 2026-05-06 21:06 | 44.79410 | 10.44507 | 16467 ft | 328 kts | 329° |
| 2026-05-06 21:07 | 44.81463 | 10.43125 | 16146 ft | 326 kts | 329° |
| 2026-05-06 21:07 | 44.83498 | 10.41752 | 15824 ft | 324 kts | 329° |
| 2026-05-06 21:07 | 44.85524 | 10.40385 | 15508 ft | 322 kts | 329° |
| 2026-05-06 21:07 | 44.87515 | 10.39040 | 15183 ft | 320 kts | 330° |
| 2026-05-06 21:08 | 44.89522 | 10.37683 | 14869 ft | 319 kts | 330° |
| 2026-05-06 21:08 | 44.91544 | 10.36314 | 14569 ft | 318 kts | 329° |
| 2026-05-06 21:08 | 44.93508 | 10.34985 | 14223 ft | 318 kts | 329° |
| 2026-05-06 21:08 | 44.95530 | 10.33614 | 13917 ft | 317 kts | 329° |
| 2026-05-06 21:09 | 44.97489 | 10.32284 | 13587 ft | 316 kts | 329° |
| 2026-05-06 21:09 | 44.99472 | 10.30939 | 13255 ft | 315 kts | 330° |
| 2026-05-06 21:09 | 45.01444 | 10.29599 | 12882 ft | 314 kts | 330° |
| 2026-05-06 21:09 | 45.03408 | 10.28264 | 12556 ft | 312 kts | 330° |
| 2026-05-06 21:10 | 45.05355 | 10.26941 | 12229 ft | 307 kts | 330° |
| 2026-05-06 21:10 | 45.07255 | 10.25650 | 11907 ft | 298 kts | 330° |
| 2026-05-06 21:10 | 45.09102 | 10.24393 | 11618 ft | 293 kts | 330° |
| 2026-05-06 21:10 | 45.10936 | 10.23142 | 11331 ft | 292 kts | 330° |
| 2026-05-06 21:11 | 45.12762 | 10.21895 | 11044 ft | 291 kts | 330° |
| 2026-05-06 21:11 | 45.14581 | 10.20652 | 10744 ft | 290 kts | 330° |
| 2026-05-06 21:11 | 45.16394 | 10.19412 | 10443 ft | 289 kts | 330° |
| 2026-05-06 21:11 | 45.18204 | 10.18174 | 10165 ft | 288 kts | 330° |
| 2026-05-06 21:12 | 45.19976 | 10.16964 | 10081 ft | 274 kts | 330° |
| 2026-05-06 21:12 | 45.21633 | 10.15836 | 9948 ft | 255 kts | 330° |
| 2026-05-06 21:12 | 45.23182 | 10.14778 | 9827 ft | 240 kts | 329° |
| 2026-05-06 21:12 | 45.24665 | 10.13762 | 9477 ft | 239 kts | 329° |
| 2026-05-06 21:13 | 45.26141 | 10.12746 | 9226 ft | 232 kts | 329° |
| 2026-05-06 21:13 | 45.27582 | 10.11756 | 8956 ft | 228 kts | 329° |
| 2026-05-06 21:13 | 45.28993 | 10.10786 | 8718 ft | 223 kts | 329° |
| 2026-05-06 21:13 | 45.30387 | 10.09827 | 8488 ft | 221 kts | 329° |
| 2026-05-06 21:14 | 45.31765 | 10.08876 | 8278 ft | 219 kts | 330° |
| 2026-05-06 21:14 | 45.33131 | 10.07934 | 8062 ft | 218 kts | 331° |
| 2026-05-06 21:14 | 45.34498 | 10.06992 | 7860 ft | 218 kts | 331° |
| 2026-05-06 21:14 | 45.35856 | 10.06058 | 7655 ft | 216 kts | 332° |
| 2026-05-06 21:15 | 45.37198 | 10.05133 | 7412 ft | 213 kts | 331° |
| 2026-05-06 21:15 | 45.38525 | 10.04218 | 7193 ft | 211 kts | 331° |
| 2026-05-06 21:15 | 45.39837 | 10.03313 | 6986 ft | 207 kts | 331° |
| 2026-05-06 21:15 | 45.41112 | 10.02433 | 6771 ft | 200 kts | 331° |
| 2026-05-06 21:16 | 45.42338 | 10.01587 | 6655 ft | 193 kts | 332° |
| 2026-05-06 21:16 | 45.43538 | 10.00759 | 6609 ft | 190 kts | 332° |
| 2026-05-06 21:16 | 45.44737 | 9.99930 | 6567 ft | 193 kts | 332° |
| 2026-05-06 21:16 | 45.45945 | 9.99093 | 6500 ft | 194 kts | 332° |
| 2026-05-06 21:17 | 45.47162 | 9.98251 | 6428 ft | 196 kts | 332° |
| 2026-05-06 21:17 | 45.48391 | 9.97401 | 6339 ft | 197 kts | 331° |
| 2026-05-06 21:17 | 45.49654 | 9.96593 | 6109 ft | 201 kts | 342° |
| 2026-05-06 21:17 | 45.50991 | 9.96719 | 5929 ft | 189 kts | 15° |
| 2026-05-06 21:18 | 45.52255 | 9.97234 | 5732 ft | 188 kts | 14° |
| 2026-05-06 21:18 | 45.53508 | 9.97723 | 5526 ft | 186 kts | 14° |
| 2026-05-06 21:18 | 45.54753 | 9.98204 | 5330 ft | 182 kts | 15° |
| 2026-05-06 21:18 | 45.55953 | 9.98665 | 5168 ft | 179 kts | 15° |
| 2026-05-06 21:19 | 45.57146 | 9.99123 | 4977 ft | 176 kts | 15° |
| 2026-05-06 21:19 | 45.58317 | 9.99572 | 4800 ft | 171 kts | 16° |
| 2026-05-06 21:19 | 45.59463 | 10.00010 | 4608 ft | 169 kts | 16° |
| 2026-05-06 21:19 | 45.60613 | 10.00084 | 4593 ft | 170 kts | 338° |
| 2026-05-06 21:20 | 45.61435 | 9.98931 | 4517 ft | 170 kts | 289° |
| 2026-05-06 21:20 | 45.61697 | 9.97886 | 4412 ft | 168 kts | 287° |
| 2026-05-06 21:20 | 45.62168 | 9.95780 | 4082 ft | 165 kts | 284° |
| 2026-05-06 21:20 | 45.62476 | 9.94190 | 3859 ft | 167 kts | 283° |
| 2026-05-06 21:21 | 45.62771 | 9.92605 | 3637 ft | 167 kts | 282° |
| 2026-05-06 21:21 | 45.63063 | 9.91005 | 3417 ft | 166 kts | 282° |
| 2026-05-06 21:21 | 45.63355 | 9.89405 | 3199 ft | 166 kts | 282° |
| 2026-05-06 21:21 | 45.63637 | 9.87815 | 2962 ft | 163 kts | 280° |
| 2026-05-06 21:22 | 45.63916 | 9.86255 | 2688 ft | 162 kts | 284° |
| 2026-05-06 21:22 | 45.64200 | 9.84685 | 2387 ft | 164 kts | 283° |
| 2026-05-06 21:22 | 45.64481 | 9.83114 | 2183 ft | 162 kts | 284° |
| 2026-05-06 21:22 | 45.64762 | 9.81568 | 1994 ft | 160 kts | 285° |
| 2026-05-06 21:23 | 45.65069 | 9.80044 | 1725 ft | 160 kts | 288° |
| 2026-05-06 21:23 | 45.65337 | 9.78526 | 1579 ft | 153 kts | 286° |
| 2026-05-06 21:23 | 45.65579 | 9.77085 | 1427 ft | 147 kts | 289° |
| 2026-05-06 21:23 | 45.65852 | 9.75683 | 1270 ft | 147 kts | 287° |
| 2026-05-06 21:24 | 45.66113 | 9.74272 | 1065 ft | 146 kts | 288° |
| 2026-05-06 21:24 | 45.66374 | 9.72881 | 868 ft | 144 kts | 286° |
| 2026-05-06 21:24 | 45.66623 | 9.71548 | 779 ft | 129 kts | 286° |
| 2026-05-06 21:24 | 45.66819 | 9.70520 | 786 ft | 86 kts | 285° |
| 2026-05-06 21:25 | 45.66884 | 9.70025 | 791 ft | 27 kts | 261° |
| 2026-05-06 21:25 | 45.66816 | 9.69812 | 791 ft | 4 kts | 240° |
| 2026-05-06 21:25 | 45.66813 | 9.69806 | 791 ft | 1 kts | 239° |
| 2026-05-06 21:25 | 45.66794 | 9.69763 | 791 ft | 8 kts | 226° |
| 2026-05-06 21:26 | 45.66720 | 9.69789 | 790 ft | 11 kts | 150° |
| 2026-05-06 21:26 | 45.66682 | 9.69795 | 790 ft | 0 kts | 190° |
| 2026-05-06 21:26 | 45.66682 | 9.69794 | 790 ft | 0 kts | 190° |